createdAt,value
2022-12-15T00:00:30.568Z,10.32
2022-12-15T00:03:16.097Z,11.37
2022-12-15T00:06:02.280Z,10.13
2022-12-15T00:08:49.349Z,8.02
2022-12-15T00:11:35.056Z,8.40
2022-12-15T00:14:20.407Z,8.95
2022-12-15T00:17:05.801Z,9.00
2022-12-15T00:19:51.356Z,9.13
2022-12-15T00:22:37.026Z,10.13
2022-12-15T00:25:25.109Z,9.35
2022-12-15T00:28:10.650Z,9.33
2022-12-15T00:31:01.925Z,10.07
2022-12-15T00:33:47.968Z,9.75
2022-12-15T00:36:33.696Z,9.82
2022-12-15T00:39:04.063Z,7.47
2022-12-15T00:41:34.050Z,10.35
2022-12-15T00:44:02.328Z,10.90
2022-12-15T00:46:48.041Z,9.57
2022-12-15T00:49:30.181Z,11.93
2022-12-15T00:52:15.942Z,9.23
2022-12-15T00:55:01.614Z,10.65
2022-12-15T00:57:48.785Z,8.73
2022-12-15T01:00:34.259Z,8.48
2022-12-15T01:03:20.072Z,9.55
2022-12-15T01:06:05.736Z,6.87
2022-12-15T01:08:51.569Z,10.25
2022-12-15T01:11:37.395Z,10.23
2022-12-15T01:14:24.434Z,8.85
2022-12-15T01:17:10.377Z,6.00
2022-12-15T01:19:55.981Z,8.18
2022-12-15T01:22:24.742Z,6.38
2022-12-15T01:24:53.069Z,8.63
2022-12-15T01:27:21.377Z,8.32
2022-12-15T01:29:51.022Z,8.27
2022-12-15T01:32:19.586Z,8.30
2022-12-15T01:34:47.876Z,9.00
2022-12-15T01:37:16.322Z,9.50
2022-12-15T01:39:58.361Z,10.70
2022-12-15T01:42:26.673Z,7.10
2022-12-15T01:45:42.528Z,7.35
2022-12-15T01:48:16.368Z,8.15
2022-12-15T01:50:47.986Z,8.55
2022-12-15T01:53:18.175Z,8.32
2022-12-15T01:55:49.779Z,9.00
2022-12-15T01:58:19.989Z,8.75
2022-12-15T02:00:49.724Z,16.15
2022-12-15T02:03:18.203Z,8.60
2022-12-15T02:05:47.843Z,15.33
2022-12-15T02:08:16.154Z,9.13
2022-12-15T02:11:04.046Z,7.47
2022-12-15T02:13:41.564Z,10.02
2022-12-15T02:16:20.659Z,10.40
2022-12-15T02:19:00.269Z,8.25
2022-12-15T02:21:33.437Z,9.80
2022-12-15T02:24:24.692Z,10.90
2022-12-15T02:27:17.038Z,9.88
2022-12-15T02:30:19.924Z,8.57
2022-12-15T02:32:59.598Z,12.52
2022-12-15T02:35:31.928Z,9.10
2022-12-15T02:38:00.183Z,10.15
2022-12-15T02:40:28.521Z,7.93
2022-12-15T02:43:01.422Z,7.75
2022-12-15T02:45:37.538Z,7.40
2022-12-15T02:48:17.622Z,11.20
2022-12-15T02:50:58.338Z,7.15
2022-12-15T02:53:42.987Z,8.20
2022-12-15T02:56:19.251Z,10.25
2022-12-15T02:58:55.518Z,9.48
2022-12-15T03:01:31.561Z,10.48
2022-12-15T03:04:02.532Z,7.88
2022-12-15T03:06:30.947Z,7.38
2022-12-15T03:08:59.176Z,9.13
2022-12-15T03:11:27.675Z,7.03
2022-12-15T03:13:56.100Z,10.18
2022-12-15T03:16:25.818Z,7.95
2022-12-15T03:18:54.402Z,7.93
2022-12-15T03:21:22.661Z,8.05
2022-12-15T03:23:50.883Z,9.77
2022-12-15T03:26:19.302Z,10.45
2022-12-15T03:28:47.723Z,9.77
2022-12-15T03:31:16.001Z,9.25
2022-12-15T03:33:45.745Z,9.10
2022-12-15T03:36:14.035Z,11.93
2022-12-15T03:38:42.311Z,9.15
2022-12-15T03:41:10.818Z,8.32
2022-12-15T03:43:39.090Z,7.90
2022-12-15T03:46:07.495Z,9.35
2022-12-15T03:48:35.842Z,10.43
2022-12-15T03:51:05.573Z,8.25
2022-12-15T03:53:34.251Z,11.45
2022-12-15T03:56:02.640Z,9.60
2022-12-15T03:58:31.003Z,8.48
2022-12-15T04:00:59.345Z,9.70
2022-12-15T04:03:28.366Z,9.20
2022-12-15T04:05:57.014Z,11.25
2022-12-15T04:08:26.870Z,9.07
2022-12-15T04:10:55.180Z,11.18
2022-12-15T04:13:23.507Z,8.00
2022-12-15T04:15:51.765Z,12.70
2022-12-15T04:18:20.037Z,10.25
2022-12-15T04:20:47.275Z,10.18
2022-12-15T04:23:18.724Z,9.67
2022-12-15T04:26:05.731Z,9.45
2022-12-15T04:28:51.108Z,6.85
2022-12-15T04:31:40.833Z,8.93
2022-12-15T04:34:31.279Z,9.10
2022-12-15T04:37:17.305Z,9.10
2022-12-15T04:40:06.371Z,6.43
2022-12-15T04:42:55.296Z,6.63
2022-12-15T04:45:43.953Z,8.57
2022-12-15T04:48:30.274Z,8.93
2022-12-15T04:51:16.084Z,10.10
2022-12-15T04:54:02.909Z,7.63
2022-12-15T04:56:50.004Z,8.20
2022-12-15T04:59:37.447Z,9.02
2022-12-15T05:02:23.374Z,6.80
2022-12-15T05:05:08.701Z,8.55
2022-12-15T05:07:54.572Z,7.53
2022-12-15T05:10:40.219Z,7.75
2022-12-15T05:13:27.235Z,7.82
2022-12-15T05:16:14.588Z,5.82
2022-12-15T05:19:00.034Z,7.63
2022-12-15T05:21:45.594Z,8.88
2022-12-15T05:24:31.107Z,8.98
2022-12-15T05:27:16.493Z,8.63
2022-12-15T05:30:02.228Z,7.70
2022-12-15T05:32:33.306Z,7.75
2022-12-15T05:35:02.476Z,6.05
2022-12-15T05:37:30.707Z,7.70
2022-12-15T05:39:58.951Z,6.60
2022-12-15T05:42:27.163Z,6.38
2022-12-15T05:44:55.405Z,7.68
2022-12-15T05:47:23.617Z,5.38
2022-12-15T05:49:53.288Z,7.18
2022-12-15T05:52:21.511Z,5.95
2022-12-15T05:54:49.856Z,7.60
2022-12-15T05:57:18.231Z,8.93
2022-12-15T05:59:46.484Z,6.20
2022-12-15T06:02:14.835Z,7.32
2022-12-15T06:04:43.169Z,4.78
2022-12-15T06:07:12.878Z,7.30
2022-12-15T06:09:41.111Z,5.93
2022-12-15T06:12:09.406Z,6.63
2022-12-15T06:14:37.803Z,7.37
2022-12-15T06:17:06.238Z,8.43
2022-12-15T06:19:34.500Z,6.40
2022-12-15T06:22:02.773Z,8.23
2022-12-15T06:24:32.413Z,5.70
2022-12-15T06:27:00.759Z,5.80
2022-12-15T06:29:29.279Z,6.47
2022-12-15T06:31:57.908Z,8.10
2022-12-15T06:34:26.764Z,10.07
2022-12-15T06:36:55.132Z,7.07
2022-12-15T06:39:23.538Z,7.97
2022-12-15T06:41:53.253Z,7.28
2022-12-15T06:44:21.766Z,5.45
2022-12-15T06:46:49.987Z,5.88
2022-12-15T06:49:18.278Z,5.25
2022-12-15T06:51:46.607Z,4.30
2022-12-15T06:54:14.825Z,6.18
2022-12-15T06:56:43.510Z,9.25
2022-12-15T06:59:14.714Z,7.00
2022-12-15T07:01:43.506Z,7.18
2022-12-15T07:04:12.255Z,7.45
2022-12-15T07:06:42.482Z,8.00
2022-12-15T07:09:16.053Z,4.97
2022-12-15T07:11:45.325Z,5.60
2022-12-15T07:14:15.933Z,6.55
2022-12-15T07:16:45.591Z,6.05
2022-12-15T07:19:14.188Z,7.95
2022-12-15T07:21:42.834Z,6.95
2022-12-15T07:24:13.227Z,6.60
2022-12-15T07:26:41.764Z,8.52
2022-12-15T07:29:11.964Z,4.22
2022-12-15T07:31:41.757Z,7.53
2022-12-15T07:34:10.157Z,4.95
2022-12-15T07:36:38.532Z,6.63
2022-12-15T07:39:08.360Z,5.35
2022-12-15T07:41:36.764Z,6.85
2022-12-15T07:44:06.280Z,7.65
2022-12-15T07:46:34.628Z,6.90
2022-12-15T07:49:04.297Z,7.13
2022-12-15T07:51:32.856Z,8.32
2022-12-15T07:54:01.350Z,6.47
2022-12-15T07:56:33.215Z,8.43
2022-12-15T07:59:04.240Z,7.75
2022-12-15T08:01:32.613Z,5.43
2022-12-15T08:04:01.024Z,5.97
2022-12-15T08:06:30.855Z,9.32
2022-12-15T08:08:59.550Z,5.65
2022-12-15T08:11:27.815Z,9.95
2022-12-15T08:14:04.958Z,6.65
2022-12-15T08:16:34.698Z,6.10
2022-12-15T08:19:03.587Z,7.20
2022-12-15T08:21:33.373Z,6.82
2022-12-15T08:24:02.014Z,5.57
2022-12-15T08:26:31.595Z,6.53
2022-12-15T08:29:48.862Z,5.72
2022-12-15T08:31:54.048Z,7.20
2022-12-15T08:34:22.575Z,4.60
2022-12-15T08:36:52.300Z,4.45
2022-12-15T08:39:20.649Z,6.03
2022-12-15T08:41:49.102Z,9.32
2022-12-15T08:44:17.522Z,6.80
2022-12-15T08:46:45.833Z,5.63
2022-12-15T08:49:18.079Z,6.28
2022-12-15T08:51:51.536Z,5.38
2022-12-15T08:54:21.379Z,5.32
2022-12-15T08:56:50.468Z,4.75
2022-12-15T08:59:19.526Z,5.82
2022-12-15T09:01:48.108Z,4.80
2022-12-15T09:04:16.962Z,6.18
2022-12-15T09:06:50.347Z,7.30
2022-12-15T09:09:21.273Z,8.43
2022-12-15T09:11:50.051Z,6.88
2022-12-15T09:14:25.494Z,6.72
2022-12-15T09:16:57.102Z,7.63
2022-12-15T09:19:25.562Z,7.35
2022-12-15T09:21:53.856Z,9.48
2022-12-15T09:24:33.874Z,6.47
2022-12-15T09:27:03.371Z,8.00
2022-12-15T09:29:32.014Z,6.25
2022-12-15T09:32:00.538Z,9.13
2022-12-15T09:34:29.132Z,7.78
2022-12-15T09:36:57.891Z,9.32
2022-12-15T09:39:27.747Z,5.22
2022-12-15T09:41:59.942Z,8.00
2022-12-15T09:44:32.973Z,8.40
2022-12-15T09:47:17.086Z,10.55
2022-12-15T09:49:55.655Z,6.93
2022-12-15T09:52:27.845Z,6.05
2022-12-15T09:54:58.267Z,7.47
2022-12-15T09:57:38.817Z,5.28
2022-12-15T10:00:16.880Z,4.90
2022-12-15T10:03:11.075Z,5.78
2022-12-15T10:06:17.338Z,7.10
2022-12-15T10:08:50.917Z,7.10
2022-12-15T10:11:26.240Z,11.23
2022-12-15T10:14:00.346Z,6.78
2022-12-15T10:16:34.116Z,4.93
2022-12-15T10:19:10.470Z,6.27
2022-12-15T10:21:39.147Z,9.07
2022-12-15T10:24:31.413Z,6.40
2022-12-15T10:27:23.840Z,5.15
2022-12-15T10:30:01.299Z,7.22
2022-12-15T10:32:42.814Z,6.45
2022-12-15T10:35:17.563Z,7.72
2022-12-15T10:37:45.895Z,5.97
2022-12-15T10:40:20.537Z,6.55
2022-12-15T10:42:51.676Z,8.20
2022-12-15T10:45:35.994Z,6.50
2022-12-15T10:48:06.757Z,7.10
2022-12-15T10:50:36.453Z,5.97
2022-12-15T10:53:10.575Z,6.30
2022-12-15T10:55:41.187Z,6.32
2022-12-15T10:58:19.629Z,12.85
2022-12-15T11:00:50.964Z,13.20
2022-12-15T11:03:40.571Z,10.65
2022-12-15T11:06:16.160Z,5.25
2022-12-15T11:08:47.411Z,5.38
2022-12-15T11:11:45.537Z,5.65
2022-12-15T11:14:19.124Z,5.75
2022-12-15T11:16:52.179Z,7.88
2022-12-15T11:19:32.612Z,6.70
2022-12-15T11:22:06.193Z,8.80
2022-12-15T11:24:41.166Z,7.68
2022-12-15T11:27:18.465Z,4.53
2022-12-15T11:29:58.609Z,8.02
2022-12-15T11:32:29.738Z,7.45
2022-12-15T11:34:58.413Z,7.85
2022-12-15T11:37:39.513Z,4.03
2022-12-15T11:40:40.180Z,5.68
2022-12-15T11:43:32.062Z,7.07
2022-12-15T11:46:19.972Z,5.40
2022-12-15T11:49:03.073Z,4.95
2022-12-15T11:51:41.818Z,7.25
2022-12-15T11:54:19.789Z,5.53
2022-12-15T11:56:51.992Z,7.50
2022-12-15T11:59:53.195Z,5.40
2022-12-15T12:02:42.619Z,6.60
2022-12-15T12:05:28.501Z,6.97
2022-12-15T12:08:09.197Z,5.50
2022-12-15T12:10:48.914Z,5.10
2022-12-15T12:13:28.040Z,7.35
2022-12-15T12:16:05.760Z,6.30
2022-12-15T12:18:39.274Z,7.93
2022-12-15T12:21:11.895Z,7.78
2022-12-15T12:23:44.495Z,4.40
2022-12-15T12:26:18.131Z,5.97
2022-12-15T12:28:50.377Z,7.93
2022-12-15T12:31:27.570Z,3.03
2022-12-15T12:34:03.763Z,3.95
2022-12-15T12:36:32.057Z,4.80
2022-12-15T12:39:01.148Z,3.90
2022-12-15T12:41:42.948Z,6.83
2022-12-15T12:44:18.205Z,9.10
2022-12-15T12:46:50.722Z,7.30
2022-12-15T12:49:28.690Z,10.52
2022-12-15T12:51:59.845Z,5.70
2022-12-15T12:54:50.304Z,9.20
2022-12-15T12:57:39.367Z,8.73
2022-12-15T13:00:21.462Z,7.22
2022-12-15T13:03:16.430Z,10.98
2022-12-15T13:05:50.401Z,10.83
2022-12-15T13:08:52.552Z,7.28
2022-12-15T13:11:56.862Z,7.65
2022-12-15T13:14:48.226Z,7.00
2022-12-15T13:17:27.536Z,10.68
2022-12-15T13:20:26.794Z,13.60
2022-12-15T13:23:17.997Z,9.30
2022-12-15T13:25:51.763Z,9.00
2022-12-15T13:28:32.510Z,9.25
2022-12-15T13:31:33.561Z,5.82
2022-12-15T13:34:23.722Z,9.18
2022-12-15T13:36:57.026Z,6.85
2022-12-15T13:39:59.326Z,6.40
2022-12-15T13:42:40.751Z,8.60
2022-12-15T13:45:50.704Z,9.15
2022-12-15T13:48:38.647Z,6.00
2022-12-15T13:51:33.327Z,6.53
2022-12-15T13:54:05.625Z,6.75
2022-12-15T13:56:47.481Z,7.20
2022-12-15T13:59:27.358Z,7.75
2022-12-15T14:01:56.243Z,6.30
2022-12-15T14:04:24.797Z,7.22
2022-12-15T14:06:55.783Z,6.95
2022-12-15T14:09:29.633Z,6.45
2022-12-15T14:12:00.090Z,7.40
2022-12-15T14:14:31.411Z,8.85
2022-12-15T14:17:01.897Z,8.93
2022-12-15T14:19:39.994Z,5.95
2022-12-15T14:25:17.591Z,6.75
2022-12-15T14:27:50.746Z,6.63
2022-12-15T14:30:29.521Z,6.60
2022-12-15T14:33:01.581Z,7.80
2022-12-15T14:35:32.440Z,8.38
2022-12-15T14:38:03.680Z,9.82
2022-12-15T14:40:34.805Z,9.23
2022-12-15T14:43:05.995Z,8.18
2022-12-15T14:45:34.388Z,7.60
2022-12-15T14:51:01.038Z,9.27
2022-12-15T14:53:34.902Z,8.73
2022-12-15T14:59:21.383Z,9.70
2022-12-15T15:01:58.745Z,10.40
2022-12-15T15:03:06.093Z,6.65
2022-12-15T15:04:31.321Z,9.27
2022-12-15T15:07:03.425Z,9.68
2022-12-15T15:09:34.726Z,9.33
2022-12-15T15:12:06.387Z,10.95
2022-12-15T15:14:42.260Z,13.32
2022-12-15T15:17:22.227Z,10.05
2022-12-15T15:19:53.712Z,6.10
2022-12-15T15:22:32.394Z,8.65
2022-12-15T15:25:01.001Z,8.02
2022-12-15T15:27:36.827Z,8.25
2022-12-15T15:30:22.248Z,10.55
2022-12-15T15:32:56.164Z,15.50
2022-12-15T15:35:26.596Z,12.88
2022-12-15T15:37:58.399Z,11.65
2022-12-15T15:40:26.806Z,8.52
2022-12-15T15:42:55.591Z,8.55
2022-12-15T15:45:25.642Z,11.45
2022-12-15T15:47:56.265Z,10.35
2022-12-15T15:50:30.816Z,11.52
2022-12-15T15:52:59.721Z,8.27
2022-12-15T15:55:37.819Z,10.48
2022-12-15T15:58:12.190Z,12.13
2022-12-15T16:00:41.949Z,11.80
2022-12-15T16:03:10.916Z,13.57
2022-12-15T16:05:40.761Z,14.18
2022-12-15T16:08:13.904Z,11.70
2022-12-15T16:10:45.367Z,13.15
2022-12-15T16:13:14.149Z,10.30
2022-12-15T16:15:44.907Z,15.00
2022-12-15T16:18:13.434Z,14.10
2022-12-15T16:20:44.575Z,15.13
2022-12-15T16:23:16.896Z,18.67
2022-12-15T16:25:50.839Z,18.50
2022-12-15T16:28:22.122Z,21.77
2022-12-15T16:30:52.376Z,18.85
2022-12-15T16:33:20.726Z,22.85
2022-12-15T16:35:50.621Z,22.70
2022-12-15T16:38:24.002Z,27.98
2022-12-15T16:40:52.809Z,25.05
2022-12-15T16:43:25.652Z,25.58
2022-12-15T16:45:57.107Z,17.05
2022-12-15T16:48:25.857Z,10.65
2022-12-15T16:50:56.146Z,7.53
2022-12-15T16:53:27.587Z,8.27
2022-12-15T16:55:57.445Z,7.72
2022-12-15T16:58:26.619Z,11.93
2022-12-15T17:00:56.516Z,10.27
2022-12-15T17:03:26.152Z,14.25
2022-12-15T17:05:56.988Z,20.73
2022-12-15T17:08:28.986Z,16.55
2022-12-15T17:10:57.644Z,19.70
2022-12-15T17:13:37.790Z,14.50
2022-12-15T17:16:15.090Z,22.65
2022-12-15T17:18:44.626Z,21.02
2022-12-15T17:21:17.783Z,27.05
2022-12-15T17:23:49.820Z,30.17
2022-12-15T17:26:28.695Z,28.83
2022-12-15T17:29:01.433Z,25.73
2022-12-15T17:31:35.793Z,21.52
2022-12-15T17:34:23.261Z,25.67
2022-12-15T17:36:52.042Z,19.17
2022-12-15T17:39:22.100Z,19.17
2022-12-15T17:42:05.933Z,13.77
2022-12-15T17:44:38.198Z,13.35
2022-12-15T17:47:09.683Z,14.30
2022-12-15T17:49:39.238Z,15.80
2022-12-15T17:52:28.676Z,20.02
2022-12-15T17:54:57.776Z,19.13
2022-12-15T17:57:26.183Z,22.80
2022-12-15T17:59:54.965Z,19.88
2022-12-15T18:02:24.912Z,27.08
2022-12-15T18:04:54.212Z,22.30
2022-12-15T18:07:24.773Z,19.83
2022-12-15T18:09:54.292Z,18.08
2022-12-15T18:12:25.408Z,19.58
2022-12-15T18:14:54.383Z,23.75
2022-12-15T18:17:24.426Z,28.83
2022-12-15T18:19:52.814Z,19.23
2022-12-15T18:22:23.454Z,26.50
2022-12-15T18:24:54.136Z,35.70
2022-12-15T18:27:24.922Z,31.10
2022-12-15T18:29:53.687Z,22.63
2022-12-15T18:32:25.866Z,33.65
2022-12-15T18:34:54.812Z,35.05
2022-12-15T18:37:25.769Z,33.38
2022-12-15T18:39:57.119Z,29.03
2022-12-15T18:42:29.374Z,28.70
2022-12-15T18:45:00.431Z,24.15
2022-12-15T18:47:30.124Z,23.97
2022-12-15T18:49:58.511Z,27.70
2022-12-15T18:52:33.014Z,20.40
2022-12-15T18:55:02.996Z,22.88
2022-12-15T18:57:33.587Z,24.27
2022-12-15T19:00:08.074Z,22.52
2022-12-15T19:02:37.980Z,24.65
2022-12-15T19:05:07.073Z,24.95
2022-12-15T19:07:36.874Z,20.60
2022-12-15T19:10:05.658Z,25.00
2022-12-15T19:12:34.072Z,19.73
2022-12-15T19:15:02.853Z,20.45
2022-12-15T19:17:48.512Z,17.92
2022-12-15T19:20:37.971Z,20.25
2022-12-15T19:23:06.835Z,17.83
2022-12-15T19:25:35.406Z,15.23
2022-12-15T19:28:03.682Z,20.47
2022-12-15T19:30:40.129Z,23.90
2022-12-15T19:33:10.434Z,23.55
2022-12-15T19:35:41.343Z,19.15
2022-12-15T19:38:15.901Z,18.50
2022-12-15T19:40:44.162Z,22.73
2022-12-15T19:43:16.460Z,19.35
2022-12-15T19:45:45.155Z,20.48
2022-12-15T19:48:15.017Z,17.15
2022-12-15T19:50:50.672Z,19.48
2022-12-15T19:53:25.683Z,18.85
2022-12-15T19:55:55.976Z,18.08
2022-12-15T19:58:28.469Z,14.57
2022-12-15T20:00:58.785Z,18.30
2022-12-15T20:03:28.797Z,20.55
2022-12-15T20:06:00.016Z,22.00
2022-12-15T20:08:31.117Z,23.35
2022-12-15T20:11:01.163Z,19.80
2022-12-15T20:13:29.828Z,20.40
2022-12-15T20:15:58.435Z,19.67
2022-12-15T20:18:26.782Z,18.77
2022-12-15T20:20:55.754Z,19.38
2022-12-15T20:23:27.561Z,19.13
2022-12-15T20:25:57.376Z,16.95
2022-12-15T20:28:27.950Z,16.08
2022-12-15T20:30:57.510Z,16.77
2022-12-15T20:33:26.031Z,19.55
2022-12-15T20:35:55.159Z,19.00
2022-12-15T20:38:31.568Z,24.48
2022-12-15T20:41:01.246Z,22.00
2022-12-15T20:43:32.531Z,19.93
2022-12-15T20:46:06.211Z,22.90
2022-12-15T20:48:36.683Z,35.97
2022-12-15T20:51:09.239Z,39.97
2022-12-15T20:53:40.076Z,32.92
2022-12-15T20:56:09.038Z,23.13
2022-12-15T20:58:41.205Z,26.85
2022-12-15T21:01:24.825Z,29.93
2022-12-15T21:03:56.645Z,29.88
2022-12-15T21:06:26.622Z,23.80
2022-12-15T21:08:56.718Z,24.55
2022-12-15T21:11:27.349Z,25.00
2022-12-15T21:14:03.738Z,33.13
2022-12-15T21:16:33.097Z,17.00
2022-12-15T21:19:21.385Z,21.80
2022-12-15T21:24:43.652Z,22.77
2022-12-15T21:27:14.280Z,19.60
2022-12-15T21:29:46.079Z,15.97
2022-12-15T21:32:18.810Z,18.40
2022-12-15T21:34:47.062Z,19.50
2022-12-15T21:37:24.962Z,17.48
2022-12-15T21:39:55.515Z,21.23
2022-12-15T21:42:24.355Z,17.50
2022-12-15T21:44:53.022Z,16.98
2022-12-15T21:47:25.996Z,22.13
2022-12-15T21:49:53.463Z,18.10
2022-12-15T21:52:25.768Z,18.40
2022-12-15T21:54:55.828Z,18.20
2022-12-15T21:57:24.046Z,22.95
2022-12-15T21:59:52.383Z,22.08
2022-12-15T22:02:25.742Z,21.80
2022-12-15T22:04:54.829Z,21.40
2022-12-15T22:07:23.493Z,24.95
2022-12-15T22:09:51.887Z,29.00
2022-12-15T22:12:23.698Z,24.90
2022-12-15T22:14:52.191Z,19.17
2022-12-15T22:17:22.801Z,24.63
2022-12-15T22:19:51.073Z,29.88
2022-12-15T22:22:20.306Z,21.08
2022-12-15T22:24:48.693Z,21.85
2022-12-15T22:27:22.154Z,20.30
2022-12-15T22:29:51.413Z,25.83
2022-12-15T22:32:19.677Z,22.98
2022-12-15T22:34:48.118Z,24.10
2022-12-15T22:37:16.334Z,23.35
2022-12-15T22:39:44.593Z,28.05
2022-12-15T22:42:17.859Z,24.63
2022-12-15T22:44:47.763Z,25.10
2022-12-15T22:47:16.088Z,23.40
2022-12-15T22:49:44.716Z,25.23
2022-12-15T22:52:18.127Z,26.50
2022-12-15T22:54:46.461Z,23.05
2022-12-15T22:57:21.994Z,22.53
2022-12-15T23:00:00.547Z,24.93
2022-12-15T23:02:30.120Z,23.17
2022-12-15T23:04:58.625Z,21.08
2022-12-15T23:07:27.207Z,25.20
2022-12-15T23:10:16.970Z,25.08
2022-12-15T23:12:44.275Z,26.55
2022-12-15T23:15:31.902Z,24.40
2022-12-15T23:18:00.324Z,23.05
2022-12-15T23:20:28.631Z,24.75
2022-12-15T23:22:56.872Z,63.58
2022-12-15T23:25:25.296Z,21.27
2022-12-15T23:27:53.685Z,23.42
2022-12-15T23:30:25.443Z,21.17
2022-12-15T23:32:55.463Z,20.13
2022-12-15T23:35:24.287Z,19.60
2022-12-15T23:37:52.545Z,19.95
2022-12-15T23:40:22.275Z,22.87
2022-12-15T23:42:51.223Z,22.33
2022-12-15T23:45:20.585Z,22.85
2022-12-15T23:47:50.311Z,21.98
2022-12-15T23:50:19.302Z,19.60
2022-12-15T23:52:51.268Z,20.02
2022-12-15T23:55:20.630Z,23.20
2022-12-15T23:57:48.907Z,19.83
